Time;durP1;ratioP1;P1;durP2;ratioP2;P2;SDS_P1;SDS_P2;PMS_P1;PMS_P2;Temp;Humidity;BMP_temperature;BMP_pressure;BME280_temperature;BME280_humidity;BME280_pressure;Samples;Min_cycle;Max_cycle;Signal;HPM_P1;HPM_P2
2024/01/25 00:01:13;;;;;;;31.85;6.60;;;;;;;;;;4953366;29;20035;-69
2024/01/25 00:03:39;;;;;;;33.40;5.20;;;;;;;;;;4944630;29;20062;-69
2024/01/25 00:06:06;;;;;;;35.53;5.03;;;;;;;;;;4934278;29;20040;-69
2024/01/25 00:08:33;;;;;;;33.08;5.28;;;;;;;;;;4949573;29;20118;-69
2024/01/25 00:10:59;;;;;;;34.28;5.82;;;;;;;;;;4953207;29;20070;-69
2024/01/25 00:13:25;;;;;;;36.08;4.72;;;;;;;;;;4934170;29;20079;-70
2024/01/25 00:15:52;;;;;;;32.47;5.30;;;;;;;;;;4924215;29;20162;-70
2024/01/25 00:18:18;;;;;;;31.67;5.55;;;;;;;;;;4914554;29;20055;-70
2024/01/25 00:20:44;;;;;;;34.30;5.63;;;;;;;;;;4925398;29;20048;-70
2024/01/25 00:23:10;;;;;;;34.35;5.45;;;;;;;;;;4915224;29;20037;-70
2024/01/25 00:25:36;;;;;;;40.92;6.28;;;;;;;;;;4915031;29;20039;-69
2024/01/25 00:28:03;;;;;;;32.72;4.55;;;;;;;;;;4914880;29;20052;-69
2024/01/25 00:30:29;;;;;;;41.42;6.32;;;;;;;;;;4914700;29;20043;-69
2024/01/25 00:32:56;;;;;;;42.90;5.72;;;;;;;;;;4932936;29;20039;-69
2024/01/25 00:35:22;;;;;;;34.85;5.97;;;;;;;;;;4928397;29;20071;-69
2024/01/25 00:37:48;;;;;;;37.90;5.82;;;;;;;;;;4897402;29;20044;-69
2024/01/25 00:40:14;;;;;;;38.67;5.35;;;;;;;;;;4925229;29;20149;-69
2024/01/25 00:42:45;;;;;;;35.92;5.40;;;;;;;;;;4952571;29;20557;-69
2024/01/25 00:45:12;;;;;;;31.48;6.28;;;;;;;;;;4933638;29;20127;-69
2024/01/25 00:47:38;;;;;;;40.45;5.55;;;;;;;;;;4933366;29;20047;-69
2024/01/25 00:50:05;;;;;;;32.63;6.13;;;;;;;;;;4915828;29;20048;-69
2024/01/25 00:52:31;;;;;;;39.58;5.90;;;;;;;;;;4947489;29;20126;-69
2024/01/25 00:54:57;;;;;;;42.40;6.43;;;;;;;;;;4950865;29;20047;-69
2024/01/25 00:57:23;;;;;;;30.70;5.35;;;;;;;;;;4933525;29;20126;-69
2024/01/25 00:59:49;;;;;;;30.30;5.65;;;;;;;;;;4924307;29;20044;-69
2024/01/25 01:02:16;;;;;;;44.35;6.57;;;;;;;;;;4914324;29;20044;-69
2024/01/25 01:04:42;;;;;;;38.47;6.10;;;;;;;;;;4929127;29;20039;-69
2024/01/25 01:07:08;;;;;;;31.40;4.80;;;;;;;;;;4935343;29;20126;-69
2024/01/25 01:09:34;;;;;;;35.35;5.45;;;;;;;;;;4952135;29;20047;-69
2024/01/25 01:12:00;;;;;;;34.95;5.68;;;;;;;;;;4934585;29;20128;-69
2024/01/25 01:14:26;;;;;;;40.35;6.07;;;;;;;;;;4914352;29;20080;-69
2024/01/25 01:16:52;;;;;;;35.90;5.70;;;;;;;;;;4947018;29;20050;-69
2024/01/25 01:19:18;;;;;;;40.08;5.63;;;;;;;;;;4947697;29;20094;-69
2024/01/25 01:21:44;;;;;;;37.67;5.55;;;;;;;;;;4918937;29;20048;-69
2024/01/25 01:24:13;;;;;;;35.33;5.32;;;;;;;;;;4914083;29;20048;-69
2024/01/25 01:26:41;;;;;;;41.70;6.40;;;;;;;;;;4913833;29;20036;-69
2024/01/25 01:29:08;;;;;;;40.63;5.63;;;;;;;;;;4913085;29;20139;-69
2024/01/25 01:31:34;;;;;;;38.75;5.63;;;;;;;;;;4919668;29;20095;-69
2024/01/25 01:34:00;;;;;;;34.53;6.07;;;;;;;;;;4932750;29;20086;-69
2024/01/25 01:36:26;;;;;;;38.60;6.05;;;;;;;;;;4920683;29;20072;-69
2024/01/25 01:38:52;;;;;;;38.70;5.75;;;;;;;;;;4914410;29;20096;-69
2024/01/25 01:41:18;;;;;;;39.53;6.03;;;;;;;;;;4913509;29;20510;-69
2024/01/25 01:43:44;;;;;;;35.75;6.50;;;;;;;;;;4913571;29;20056;-69
2024/01/25 01:46:11;;;;;;;45.25;6.65;;;;;;;;;;4897049;29;20056;-69
2024/01/25 01:48:39;;;;;;;38.38;6.28;;;;;;;;;;4926485;29;20047;-69
2024/01/25 01:51:05;;;;;;;39.67;5.72;;;;;;;;;;4914520;29;20179;-69
2024/01/25 01:53:32;;;;;;;38.20;6.47;;;;;;;;;;4932738;29;20580;-69
2024/01/25 01:55:58;;;;;;;37.70;5.93;;;;;;;;;;4924060;29;20055;-69
2024/01/25 01:58:24;;;;;;;42.10;6.07;;;;;;;;;;4913563;29;20407;-69
2024/01/25 02:00:51;;;;;;;33.88;5.85;;;;;;;;;;4927778;29;20054;-69
2024/01/25 02:03:17;;;;;;;33.22;5.60;;;;;;;;;;4912417;29;20058;-69
2024/01/25 02:05:43;;;;;;;42.97;6.40;;;;;;;;;;4896735;29;20044;-69
2024/01/25 02:08:09;;;;;;;31.88;5.28;;;;;;;;;;4922442;29;20044;-69
2024/01/25 02:10:35;;;;;;;34.80;6.18;;;;;;;;;;4914537;29;20553;-69
2024/01/25 02:13:01;;;;;;;40.58;6.00;;;;;;;;;;4899210;29;20044;-69
2024/01/25 02:15:27;;;;;;;46.65;6.15;;;;;;;;;;4913204;29;20768;-70
2024/01/25 02:17:53;;;;;;;37.80;5.80;;;;;;;;;;4913148;29;20040;-67
2024/01/25 02:20:19;;;;;;;35.20;5.88;;;;;;;;;;4929995;29;20091;-68
2024/01/25 02:22:45;;;;;;;34.72;5.78;;;;;;;;;;4932124;29;20622;-68
2024/01/25 02:25:11;;;;;;;35.42;5.93;;;;;;;;;;4914912;29;20079;-68
2024/01/25 02:27:38;;;;;;;42.60;5.82;;;;;;;;;;4895925;29;20058;-68
2024/01/25 02:30:07;;;;;;;40.60;6.28;;;;;;;;;;4895590;29;20509;-69
2024/01/25 02:32:34;;;;;;;40.42;6.05;;;;;;;;;;4907434;29;20044;-69
2024/01/25 02:35:00;;;;;;;33.72;6.30;;;;;;;;;;4915341;29;20088;-69
2024/01/25 02:37:26;;;;;;;34.33;6.25;;;;;;;;;;4913543;29;20642;-69
2024/01/25 02:39:52;;;;;;;44.55;6.00;;;;;;;;;;4930534;29;20122;-69
2024/01/25 02:42:19;;;;;;;33.20;5.47;;;;;;;;;;4950913;29;20069;-68
2024/01/25 02:44:45;;;;;;;36.78;6.30;;;;;;;;;;4937887;29;20055;-68
2024/01/25 02:47:11;;;;;;;49.35;6.95;;;;;;;;;;4913811;29;20070;-69
2024/01/25 02:49:37;;;;;;;40.25;5.47;;;;;;;;;;4921586;29;20583;-68
2024/01/25 02:52:03;;;;;;;42.83;6.22;;;;;;;;;;4931648;29;20043;-68
2024/01/25 02:54:29;;;;;;;36.60;5.80;;;;;;;;;;4931549;29;20114;-68
2024/01/25 02:56:55;;;;;;;44.20;7.18;;;;;;;;;;4917841;29;20056;-68
2024/01/25 02:59:21;;;;;;;43.30;6.82;;;;;;;;;;4913398;29;20044;-68
2024/01/25 03:01:47;;;;;;;39.47;6.30;;;;;;;;;;4931474;29;20702;-68
2024/01/25 03:04:13;;;;;;;45.92;6.55;;;;;;;;;;4905964;29;20082;-68
2024/01/25 03:06:39;;;;;;;44.75;6.60;;;;;;;;;;4912472;29;20044;-68
2024/01/25 03:09:05;;;;;;;37.45;5.70;;;;;;;;;;4927262;29;20040;-68
2024/01/25 03:11:32;;;;;;;43.03;7.00;;;;;;;;;;4926887;29;20035;-68
2024/01/25 03:13:58;;;;;;;38.10;6.65;;;;;;;;;;4895474;29;20063;-69
2024/01/25 03:16:24;;;;;;;34.13;6.30;;;;;;;;;;4905017;29;20395;-69
2024/01/25 03:18:50;;;;;;;38.25;6.57;;;;;;;;;;4931783;29;20051;-69
2024/01/25 03:21:16;;;;;;;37.05;6.70;;;;;;;;;;4887386;29;20055;-68
2024/01/25 03:23:42;;;;;;;36.22;5.93;;;;;;;;;;4914989;29;20044;-68
2024/01/25 03:26:08;;;;;;;45.28;6.55;;;;;;;;;;4924307;29;20067;-68
2024/01/25 03:28:39;;;;;;;43.35;6.25;;;;;;;;;;4932076;28;20110;-68
2024/01/25 03:31:05;;;;;;;37.92;5.82;;;;;;;;;;4953775;29;20070;-68
2024/01/25 03:33:32;;;;;;;41.50;6.43;;;;;;;;;;4936915;29;20054;-68
2024/01/25 03:36:02;;;;;;;41.47;6.72;;;;;;;;;;4930132;29;20067;-68
2024/01/25 03:38:28;;;;;;;44.42;6.95;;;;;;;;;;4917731;29;20379;-69
2024/01/25 03:40:56;;;;;;;41.50;6.97;;;;;;;;;;4915442;29;20122;-68
2024/01/25 03:43:23;;;;;;;39.85;6.05;;;;;;;;;;4915433;29;20087;-68
2024/01/25 03:45:49;;;;;;;41.28;5.97;;;;;;;;;;4935151;29;20055;-68
2024/01/25 03:48:15;;;;;;;40.85;6.22;;;;;;;;;;4927891;29;20402;-68
2024/01/25 03:50:41;;;;;;;38.20;5.80;;;;;;;;;;4932938;29;20040;-68
2024/01/25 03:53:07;;;;;;;37.85;6.47;;;;;;;;;;4917431;29;20047;-68
2024/01/25 03:55:34;;;;;;;41.47;5.88;;;;;;;;;;4935318;29;20036;-68
2024/01/25 03:58:00;;;;;;;48.28;7.10;;;;;;;;;;4954076;29;20417;-68
2024/01/25 04:00:26;;;;;;;40.95;6.80;;;;;;;;;;4952962;29;20039;-68
2024/01/25 04:02:52;;;;;;;49.45;6.38;;;;;;;;;;4953665;29;20046;-69
2024/01/25 04:05:18;;;;;;;36.55;6.90;;;;;;;;;;4953370;29;20110;-69
2024/01/25 04:07:44;;;;;;;39.10;5.40;;;;;;;;;;4951668;29;20035;-69
2024/01/25 04:10:10;;;;;;;36.25;5.82;;;;;;;;;;4933948;29;20111;-68
2024/01/25 04:12:36;;;;;;;28.08;5.05;;;;;;;;;;4904807;29;20043;-68
2024/01/25 04:15:03;;;;;;;41.03;5.97;;;;;;;;;;4915483;29;20036;-69
2024/01/25 04:17:29;;;;;;;40.72;7.07;;;;;;;;;;4946267;29;20089;-69
2024/01/25 04:19:55;;;;;;;37.50;5.95;;;;;;;;;;4950439;29;20043;-69
2024/01/25 04:22:21;;;;;;;43.20;6.05;;;;;;;;;;4914753;29;20747;-69
2024/01/25 04:24:48;;;;;;;40.33;5.80;;;;;;;;;;4914789;29;20043;-68
2024/01/25 04:27:14;;;;;;;44.25;6.90;;;;;;;;;;4898071;29;20060;-68
2024/01/25 04:29:41;;;;;;;31.65;5.88;;;;;;;;;;4947979;29;20130;-68
2024/01/25 04:32:08;;;;;;;40.47;6.53;;;;;;;;;;4948182;29;20126;-68
2024/01/25 04:34:34;;;;;;;35.28;5.55;;;;;;;;;;4916781;29;20051;-68
2024/01/25 04:37:00;;;;;;;41.70;6.43;;;;;;;;;;4923061;29;20076;-68
2024/01/25 04:39:26;;;;;;;40.67;5.90;;;;;;;;;;4922998;28;20047;-69
2024/01/25 04:41:52;;;;;;;41.75;5.70;;;;;;;;;;4914782;29;20143;-69
2024/01/25 04:44:18;;;;;;;39.10;5.85;;;;;;;;;;4919804;29;20048;-69
2024/01/25 04:46:44;;;;;;;46.30;6.28;;;;;;;;;;4933658;29;20050;-69
2024/01/25 04:49:10;;;;;;;36.15;5.85;;;;;;;;;;4927526;29;20516;-69
2024/01/25 04:51:36;;;;;;;42.08;6.15;;;;;;;;;;4932870;29;20681;-68
2024/01/25 04:54:02;;;;;;;41.70;6.07;;;;;;;;;;4916326;29;20040;-68
2024/01/25 04:56:29;;;;;;;34.72;6.70;;;;;;;;;;4927220;29;20182;-68
2024/01/25 04:58:54;;;;;;;42.80;6.70;;;;;;;;;;4914744;29;20067;-68
2024/01/25 05:01:21;;;;;;;34.28;6.30;;;;;;;;;;4910013;29;20100;-68
2024/01/25 05:03:47;;;;;;;37.63;6.32;;;;;;;;;;4933340;29;20066;-69
2024/01/25 05:06:13;;;;;;;46.20;7.75;;;;;;;;;;4933470;29;20379;-68
2024/01/25 05:08:39;;;;;;;41.95;5.57;;;;;;;;;;4923473;29;20139;-69
2024/01/25 05:11:05;;;;;;;43.58;6.47;;;;;;;;;;4951570;29;20039;-69
2024/01/25 05:13:31;;;;;;;43.42;6.20;;;;;;;;;;4901557;29;20048;-69
2024/01/25 05:15:57;;;;;;;51.58;6.65;;;;;;;;;;4917542;29;20122;-69
2024/01/25 05:18:23;;;;;;;43.45;6.95;;;;;;;;;;4952576;29;20051;-69
2024/01/25 05:20:49;;;;;;;43.15;6.18;;;;;;;;;;4936583;29;20100;-69
2024/01/25 05:23:15;;;;;;;40.17;5.90;;;;;;;;;;4913900;29;20119;-69
2024/01/25 05:25:41;;;;;;;45.92;7.00;;;;;;;;;;4913677;29;20100;-69
2024/01/25 05:28:07;;;;;;;52.42;7.07;;;;;;;;;;4914144;29;20090;-69
2024/01/25 05:30:33;;;;;;;40.97;6.00;;;;;;;;;;4913832;29;20168;-69
2024/01/25 05:33:00;;;;;;;42.80;6.72;;;;;;;;;;4905561;29;20047;-69
2024/01/25 05:35:26;;;;;;;46.33;6.40;;;;;;;;;;4933067;29;20126;-69
2024/01/25 05:37:52;;;;;;;43.53;6.32;;;;;;;;;;4916537;29;20188;-69
2024/01/25 05:40:18;;;;;;;41.05;5.85;;;;;;;;;;4929560;29;20043;-68
2024/01/25 05:42:44;;;;;;;41.88;6.28;;;;;;;;;;4932411;29;20113;-68
2024/01/25 05:45:11;;;;;;;44.15;6.95;;;;;;;;;;4943004;29;20074;-68
2024/01/25 05:47:37;;;;;;;45.95;6.57;;;;;;;;;;4951990;29;20552;-68
2024/01/25 05:50:04;;;;;;;36.00;5.78;;;;;;;;;;4938240;29;20040;-68
2024/01/25 05:52:31;;;;;;;49.00;6.55;;;;;;;;;;4936049;29;20043;-69
2024/01/25 05:54:57;;;;;;;43.60;5.53;;;;;;;;;;4934572;29;20171;-68
2024/01/25 05:57:23;;;;;;;46.53;6.32;;;;;;;;;;4939508;29;20074;-68
2024/01/25 05:59:49;;;;;;;43.83;6.68;;;;;;;;;;4916490;29;20150;-68
2024/01/25 06:02:15;;;;;;;35.75;5.93;;;;;;;;;;4925366;29;20127;-68
2024/01/25 06:04:41;;;;;;;41.67;6.93;;;;;;;;;;4931778;29;20040;-68
2024/01/25 06:07:07;;;;;;;33.67;5.45;;;;;;;;;;4932137;29;20047;-68
2024/01/25 06:09:33;;;;;;;43.80;6.15;;;;;;;;;;4915079;29;20043;-68
2024/01/25 06:12:01;;;;;;;45.92;5.90;;;;;;;;;;4924987;29;20186;-68
2024/01/25 06:14:27;;;;;;;44.50;5.50;;;;;;;;;;4933745;29;20074;-68
2024/01/25 06:16:53;;;;;;;40.13;5.65;;;;;;;;;;4938149;29;20082;-68
2024/01/25 06:19:19;;;;;;;40.97;6.10;;;;;;;;;;4913412;29;20714;-68
2024/01/25 06:21:45;;;;;;;38.13;6.65;;;;;;;;;;4940881;29;20042;-68
2024/01/25 06:24:11;;;;;;;38.67;6.45;;;;;;;;;;4949059;29;20398;-68
2024/01/25 06:26:37;;;;;;;33.58;6.22;;;;;;;;;;4920878;29;20095;-68
2024/01/25 06:29:03;;;;;;;44.83;6.65;;;;;;;;;;4929348;29;20035;-68
2024/01/25 06:31:29;;;;;;;38.47;6.88;;;;;;;;;;4951360;29;20429;-68
2024/01/25 06:33:55;;;;;;;45.53;6.78;;;;;;;;;;4950673;29;20050;-68
2024/01/25 06:36:21;;;;;;;37.65;6.57;;;;;;;;;;4947382;29;20054;-69
2024/01/25 06:38:47;;;;;;;46.40;7.10;;;;;;;;;;4931859;29;20035;-67
2024/01/25 06:41:13;;;;;;;41.70;6.25;;;;;;;;;;4947217;29;20046;-68
2024/01/25 06:43:40;;;;;;;44.10;7.00;;;;;;;;;;4950169;29;20059;-68
2024/01/25 06:46:06;;;;;;;50.33;7.72;;;;;;;;;;4934749;29;20050;-68
2024/01/25 06:48:32;;;;;;;49.08;6.28;;;;;;;;;;4923761;29;20047;-69
2024/01/25 06:50:58;;;;;;;42.45;6.30;;;;;;;;;;4931893;29;20043;-69
2024/01/25 06:53:24;;;;;;;43.50;5.88;;;;;;;;;;4948476;29;20061;-70
2024/01/25 06:55:50;;;;;;;41.92;5.97;;;;;;;;;;4917498;29;20072;-68
2024/01/25 06:58:16;;;;;;;44.80;6.13;;;;;;;;;;4916663;29;20173;-68
2024/01/25 07:00:42;;;;;;;46.83;7.18;;;;;;;;;;4926768;29;20089;-69
2024/01/25 07:03:09;;;;;;;41.13;6.95;;;;;;;;;;4895828;29;20153;-69
2024/01/25 07:05:35;;;;;;;36.92;5.68;;;;;;;;;;4941023;29;20069;-67
2024/01/25 07:08:02;;;;;;;40.95;6.82;;;;;;;;;;4924428;29;20071;-67
2024/01/25 07:10:28;;;;;;;37.22;6.72;;;;;;;;;;4954882;29;20039;-67
2024/01/25 07:12:54;;;;;;;42.60;6.43;;;;;;;;;;4946013;29;20039;-68
2024/01/25 07:15:20;;;;;;;39.10;6.28;;;;;;;;;;4918160;29;20050;-68
2024/01/25 07:17:46;;;;;;;43.08;6.47;;;;;;;;;;4954055;29;20174;-71
2024/01/25 07:20:13;;;;;;;50.20;7.40;;;;;;;;;;4916633;29;20039;-71
2024/01/25 07:22:39;;;;;;;43.10;6.97;;;;;;;;;;4918448;29;20056;-67
2024/01/25 07:25:05;;;;;;;53.85;6.35;;;;;;;;;;4941558;29;20462;-67
2024/01/25 07:27:31;;;;;;;41.53;6.50;;;;;;;;;;4911979;29;20051;-66
2024/01/25 07:29:57;;;;;;;35.70;6.93;;;;;;;;;;4948467;29;20035;-67
2024/01/25 07:32:26;;;;;;;50.47;6.97;;;;;;;;;;4932474;29;20063;-68
2024/01/25 07:34:53;;;;;;;50.45;8.02;;;;;;;;;;4937338;29;20506;-68
2024/01/25 07:37:19;;;;;;;45.30;7.88;;;;;;;;;;4941684;29;20050;-68
2024/01/25 07:39:46;;;;;;;46.00;8.20;;;;;;;;;;4922605;29;20712;-68
2024/01/25 07:42:12;;;;;;;49.65;6.78;;;;;;;;;;4900242;29;20062;-67
2024/01/25 07:44:38;;;;;;;46.38;7.28;;;;;;;;;;4917764;29;20055;-66
2024/01/25 07:47:04;;;;;;;38.13;6.78;;;;;;;;;;4933616;29;20045;-67
2024/01/25 07:49:30;;;;;;;50.00;8.63;;;;;;;;;;4948189;29;20073;-66
2024/01/25 07:51:56;;;;;;;41.42;6.53;;;;;;;;;;4952498;29;20482;-66
2024/01/25 07:54:23;;;;;;;55.03;7.50;;;;;;;;;;4951978;29;20047;-67
2024/01/25 07:56:49;;;;;;;50.92;7.88;;;;;;;;;;4952652;29;20134;-67
2024/01/25 07:59:15;;;;;;;46.97;7.07;;;;;;;;;;4934298;29;20075;-69
2024/01/25 08:01:41;;;;;;;46.58;6.70;;;;;;;;;;4934918;29;20035;-69
2024/01/25 08:04:07;;;;;;;45.42;7.10;;;;;;;;;;4952545;29;20054;-69
2024/01/25 08:06:33;;;;;;;48.78;7.68;;;;;;;;;;4933584;29;20043;-69
2024/01/25 08:08:59;;;;;;;40.75;7.15;;;;;;;;;;4947360;29;20035;-67
2024/01/25 08:11:25;;;;;;;43.47;7.05;;;;;;;;;;4931411;29;20032;-68
2024/01/25 08:13:52;;;;;;;49.13;7.88;;;;;;;;;;4930775;29;20474;-68
2024/01/25 08:16:19;;;;;;;41.50;6.30;;;;;;;;;;4928210;29;20094;-68
2024/01/25 08:18:46;;;;;;;46.17;6.93;;;;;;;;;;4906024;29;20091;-69
2024/01/25 08:21:12;;;;;;;49.58;7.45;;;;;;;;;;4934962;29;20114;-67
2024/01/25 08:23:39;;;;;;;42.38;7.82;;;;;;;;;;4953181;29;20055;-68
2024/01/25 08:26:05;;;;;;;43.72;7.40;;;;;;;;;;4945447;29;20483;-67
2024/01/25 08:28:31;;;;;;;52.58;7.32;;;;;;;;;;4934634;29;20044;-67
2024/01/25 08:30:57;;;;;;;44.95;7.22;;;;;;;;;;4950481;29;20461;-66
2024/01/25 08:33:25;;;;;;;33.33;6.25;;;;;;;;;;4931023;29;20070;-66
2024/01/25 08:35:51;;;;;;;43.08;7.15;;;;;;;;;;4952618;29;20433;-67
2024/01/25 08:38:17;;;;;;;47.08;6.57;;;;;;;;;;4952510;29;20039;-66
2024/01/25 08:40:43;;;;;;;42.95;6.68;;;;;;;;;;4942371;29;20458;-67
2024/01/25 08:43:09;;;;;;;47.22;7.30;;;;;;;;;;4952022;29;20671;-66
2024/01/25 08:45:36;;;;;;;48.55;7.35;;;;;;;;;;4943314;29;20127;-65
2024/01/25 08:48:03;;;;;;;48.83;8.57;;;;;;;;;;4933705;29;20082;-68
2024/01/25 08:50:29;;;;;;;49.40;7.85;;;;;;;;;;4948838;29;20722;-67
2024/01/25 08:52:55;;;;;;;36.33;7.45;;;;;;;;;;4935128;29;20505;-69
2024/01/25 08:55:21;;;;;;;39.10;7.15;;;;;;;;;;4951878;29;20039;-68
2024/01/25 08:57:48;;;;;;;44.80;7.25;;;;;;;;;;4951983;29;20047;-67
2024/01/25 09:00:15;;;;;;;48.33;9.45;;;;;;;;;;4952377;29;20066;-68
2024/01/25 09:02:42;;;;;;;50.03;8.35;;;;;;;;;;4951205;29;20055;-69
2024/01/25 09:05:08;;;;;;;47.78;7.60;;;;;;;;;;4945051;29;20043;-68
2024/01/25 09:07:34;;;;;;;46.28;7.90;;;;;;;;;;4932472;29;20032;-69
2024/01/25 09:10:01;;;;;;;55.88;8.60;;;;;;;;;;4907000;29;20055;-71
2024/01/25 09:12:27;;;;;;;49.58;7.85;;;;;;;;;;4919540;29;20043;-70
2024/01/25 09:14:53;;;;;;;50.08;7.18;;;;;;;;;;4910566;29;20050;-68
2024/01/25 09:17:21;;;;;;;49.83;7.63;;;;;;;;;;4938085;29;20050;-69
2024/01/25 09:19:51;;;;;;;48.28;7.30;;;;;;;;;;4922749;29;20048;-71
2024/01/25 09:22:19;;;;;;;41.40;6.97;;;;;;;;;;4936254;29;20047;-70
2024/01/25 09:24:45;;;;;;;44.95;7.43;;;;;;;;;;4914654;29;20514;-67
2024/01/25 09:27:12;;;;;;;54.35;7.88;;;;;;;;;;4931092;29;20047;-67
2024/01/25 09:29:38;;;;;;;44.47;7.25;;;;;;;;;;4921884;29;20039;-69
2024/01/25 09:32:04;;;;;;;52.15;7.95;;;;;;;;;;4921319;29;20134;-68
2024/01/25 09:34:30;;;;;;;53.83;7.70;;;;;;;;;;4932566;29;20048;-67
2024/01/25 09:36:56;;;;;;;46.45;7.38;;;;;;;;;;4928949;29;20050;-70
2024/01/25 09:39:22;;;;;;;56.83;7.78;;;;;;;;;;4915495;29;20131;-71
2024/01/25 09:41:49;;;;;;;45.03;8.07;;;;;;;;;;4912641;29;20070;-70
2024/01/25 09:44:16;;;;;;;45.13;7.10;;;;;;;;;;4917376;29;20059;-70
2024/01/25 09:46:42;;;;;;;48.42;7.72;;;;;;;;;;4906414;29;20052;-67
2024/01/25 09:49:09;;;;;;;48.60;7.28;;;;;;;;;;4924332;29;20047;-68
2024/01/25 09:51:37;;;;;;;48.13;8.00;;;;;;;;;;4925242;29;20470;-67
2024/01/25 09:54:04;;;;;;;44.30;7.68;;;;;;;;;;4911679;29;20466;-67
2024/01/25 09:56:32;;;;;;;45.03;8.35;;;;;;;;;;4928506;29;20051;-68
2024/01/25 09:58:58;;;;;;;46.03;7.07;;;;;;;;;;4942817;29;20636;-67
2024/01/25 10:01:25;;;;;;;43.00;7.05;;;;;;;;;;4939848;29;20051;-68
2024/01/25 10:03:51;;;;;;;46.00;8.57;;;;;;;;;;4910373;29;20071;-67
2024/01/25 10:06:17;;;;;;;47.05;7.40;;;;;;;;;;4926675;29;20044;-71
2024/01/25 10:08:44;;;;;;;37.42;7.65;;;;;;;;;;4921387;29;20563;-69
2024/01/25 10:11:11;;;;;;;42.40;7.43;;;;;;;;;;4930649;29;20058;-69
2024/01/25 10:13:47;;;;;;;42.80;7.63;;;;;;;;;;4908726;29;20051;-69
2024/01/25 10:16:17;;;;;;;44.25;7.13;;;;;;;;;;4920062;29;20044;-70
2024/01/25 10:18:44;;;;;;;41.20;8.02;;;;;;;;;;4908032;29;20031;-71
2024/01/25 10:21:10;;;;;;;43.42;8.02;;;;;;;;;;4906520;29;20061;-69
2024/01/25 10:23:37;;;;;;;39.15;8.50;;;;;;;;;;4921808;29;20518;-72
2024/01/25 10:26:03;;;;;;;35.65;7.63;;;;;;;;;;4902933;29;20035;-71
2024/01/25 10:28:31;;;;;;;48.20;8.60;;;;;;;;;;4908349;29;20055;-73
2024/01/25 10:30:57;;;;;;;36.13;7.72;;;;;;;;;;4910654;29;20414;-72
2024/01/25 10:33:26;;;;;;;51.78;9.15;;;;;;;;;;4908425;29;20040;-74
2024/01/25 10:35:55;;;;;;;47.63;9.35;;;;;;;;;;4908257;29;20456;-72
2024/01/25 10:38:21;;;;;;;51.28;9.05;;;;;;;;;;4904259;29;20040;-73
2024/01/25 10:40:48;;;;;;;52.55;8.73;;;;;;;;;;4906598;29;20054;-71
2024/01/25 10:43:14;;;;;;;48.58;9.38;;;;;;;;;;4918898;29;20502;-70
2024/01/25 10:45:40;;;;;;;41.00;8.15;;;;;;;;;;4918450;29;20050;-69
2024/01/25 10:48:07;;;;;;;48.88;9.18;;;;;;;;;;4932647;29;20043;-69
2024/01/25 10:50:33;;;;;;;42.20;8.30;;;;;;;;;;4925237;29;20049;-69
2024/01/25 10:53:01;;;;;;;42.40;8.32;;;;;;;;;;4934312;29;20035;-69
2024/01/25 10:55:27;;;;;;;46.88;8.70;;;;;;;;;;4879791;29;20078;-70
2024/01/25 10:57:53;;;;;;;46.42;10.73;;;;;;;;;;4894364;29;20044;-72
2024/01/25 11:00:19;;;;;;;51.92;9.52;;;;;;;;;;4895096;29;20620;-70
2024/01/25 11:02:46;;;;;;;40.97;8.68;;;;;;;;;;4909368;29;20048;-70
2024/01/25 11:05:16;;;;;;;51.72;10.05;;;;;;;;;;4905216;29;20050;-74
2024/01/25 11:07:43;;;;;;;48.28;8.27;;;;;;;;;;4907962;29;20126;-70
2024/01/25 11:10:28;;;;;;;62.42;9.40;;;;;;;;;;4898221;29;20050;-70
2024/01/25 11:13:01;;;;;;;54.05;9.15;;;;;;;;;;4911665;29;20513;-69
2024/01/25 11:15:31;;;;;;;44.55;9.73;;;;;;;;;;4919353;29;20056;-68
2024/01/25 11:17:57;;;;;;;45.90;9.52;;;;;;;;;;4921151;29;20071;-68
2024/01/25 11:20:24;;;;;;;55.45;9.57;;;;;;;;;;4906712;29;20564;-69
2024/01/25 11:22:56;;;;;;;49.72;9.93;;;;;;;;;;4919576;29;20042;-72
2024/01/25 11:25:22;;;;;;;47.10;8.80;;;;;;;;;;4898598;29;20040;-72
2024/01/25 11:27:51;;;;;;;48.17;10.13;;;;;;;;;;4908345;29;20104;-72
2024/01/25 11:30:21;;;;;;;49.08;8.85;;;;;;;;;;4905824;29;20062;-72
2024/01/25 11:32:48;;;;;;;44.50;9.05;;;;;;;;;;4899024;29;20036;-72
2024/01/25 11:35:16;;;;;;;44.00;8.27;;;;;;;;;;4891817;29;20422;-72
2024/01/25 11:37:51;;;;;;;48.28;8.95;;;;;;;;;;4907599;29;20443;-73
2024/01/25 11:40:18;;;;;;;39.53;7.70;;;;;;;;;;4902534;29;20051;-73
2024/01/25 11:42:45;;;;;;;42.40;8.18;;;;;;;;;;4905117;29;20065;-75
2024/01/25 11:45:11;;;;;;;42.53;8.60;;;;;;;;;;4923610;29;20036;-72
2024/01/25 11:47:38;;;;;;;43.65;7.88;;;;;;;;;;4931103;29;20043;-75
2024/01/25 11:50:05;;;;;;;48.92;8.60;;;;;;;;;;4907495;29;20038;-72
2024/01/25 11:52:34;;;;;;;36.63;8.05;;;;;;;;;;4903698;29;20122;-75
2024/01/25 11:55:02;;;;;;;44.42;8.60;;;;;;;;;;4911742;29;20127;-74
2024/01/25 11:57:28;;;;;;;44.15;7.75;;;;;;;;;;4904440;29;20047;-73
2024/01/25 11:59:55;;;;;;;38.42;7.97;;;;;;;;;;4903537;29;20044;-74
2024/01/25 12:02:21;;;;;;;41.72;8.07;;;;;;;;;;4909741;29;20096;-74
2024/01/25 12:04:48;;;;;;;42.25;8.20;;;;;;;;;;4912456;29;20075;-73
2024/01/25 12:07:15;;;;;;;42.65;8.45;;;;;;;;;;4917698;29;20035;-74
2024/01/25 12:09:41;;;;;;;48.05;7.82;;;;;;;;;;4910535;29;20056;-70
2024/01/25 12:12:07;;;;;;;45.05;7.75;;;;;;;;;;4930194;29;20051;-73
2024/01/25 12:14:35;;;;;;;39.58;8.52;;;;;;;;;;4916210;29;20052;-76
2024/01/25 12:17:01;;;;;;;41.72;7.43;;;;;;;;;;4920123;29;20039;-75
2024/01/25 12:19:29;;;;;;;34.95;7.63;;;;;;;;;;4910588;29;20631;-75
2024/01/25 12:21:56;;;;;;;41.58;8.90;;;;;;;;;;4927124;29;20067;-74
2024/01/25 12:24:22;;;;;;;36.33;7.78;;;;;;;;;;4909928;29;20043;-75
2024/01/25 12:26:48;;;;;;;45.03;8.13;;;;;;;;;;4924665;29;20043;-75
2024/01/25 12:29:14;;;;;;;40.60;7.50;;;;;;;;;;4925580;29;20046;-73
2024/01/25 12:31:40;;;;;;;41.10;8.05;;;;;;;;;;4916709;29;20095;-73
2024/01/25 12:34:15;;;;;;;35.70;8.02;;;;;;;;;;4923185;29;20039;-76
2024/01/25 12:36:41;;;;;;;40.60;8.13;;;;;;;;;;4930467;29;20060;-75
2024/01/25 12:39:06;;;;;;;38.22;8.13;;;;;;;;;;4917630;29;20119;-75
2024/01/25 12:41:33;;;;;;;40.83;7.85;;;;;;;;;;4897430;29;20653;-74
2024/01/25 12:43:59;;;;;;;40.47;8.75;;;;;;;;;;4896997;29;20130;-73
2024/01/25 12:46:25;;;;;;;40.40;7.60;;;;;;;;;;4926205;29;20130;-77
2024/01/25 12:48:54;;;;;;;43.25;7.80;;;;;;;;;;4929752;29;20452;-77
2024/01/25 12:51:20;;;;;;;42.33;8.13;;;;;;;;;;4915351;29;20107;-73
2024/01/25 12:53:47;;;;;;;44.38;8.48;;;;;;;;;;4917363;29;20047;-74
2024/01/25 12:56:13;;;;;;;35.85;8.23;;;;;;;;;;4913964;29;20142;-72
2024/01/25 12:58:39;;;;;;;42.13;8.68;;;;;;;;;;4918684;29;20146;-72
2024/01/25 13:01:05;;;;;;;35.95;7.72;;;;;;;;;;4893015;29;20047;-72
2024/01/25 13:03:31;;;;;;;35.83;6.80;;;;;;;;;;4902648;29;20051;-73
2024/01/25 13:05:57;;;;;;;38.65;7.53;;;;;;;;;;4902547;29;20047;-73
2024/01/25 13:08:23;;;;;;;37.53;7.38;;;;;;;;;;4901469;29;20382;-73
2024/01/25 13:10:49;;;;;;;36.13;7.68;;;;;;;;;;4906114;29;20050;-72
2024/01/25 13:13:15;;;;;;;42.40;7.78;;;;;;;;;;4907042;29;20423;-74
2024/01/25 13:15:41;;;;;;;44.88;7.85;;;;;;;;;;4909942;29;20490;-74
2024/01/25 13:18:07;;;;;;;50.00;7.63;;;;;;;;;;4925037;29;20631;-72
2024/01/25 13:20:33;;;;;;;34.30;7.32;;;;;;;;;;4911531;29;20051;-74
2024/01/25 13:22:59;;;;;;;38.42;7.82;;;;;;;;;;4907221;29;20063;-68
2024/01/25 13:25:25;;;;;;;33.28;6.05;;;;;;;;;;4902088;29;20669;-73
2024/01/25 13:27:51;;;;;;;36.40;7.18;;;;;;;;;;4907277;29;20119;-72
2024/01/25 13:30:17;;;;;;;33.83;6.82;;;;;;;;;;4908909;29;20055;-76
2024/01/25 13:32:43;;;;;;;32.53;6.05;;;;;;;;;;4892139;29;20144;-75
2024/01/25 13:35:09;;;;;;;34.58;6.30;;;;;;;;;;4911636;29;20503;-74
2024/01/25 13:37:36;;;;;;;31.63;6.25;;;;;;;;;;4910590;29;20047;-71
2024/01/25 13:40:03;;;;;;;28.25;6.13;;;;;;;;;;4890485;29;20048;-74
2024/01/25 13:42:30;;;;;;;32.72;6.10;;;;;;;;;;4915425;29;20116;-71
2024/01/25 13:44:56;;;;;;;32.10;6.32;;;;;;;;;;4897055;29;20126;-71
2024/01/25 13:47:23;;;;;;;31.83;6.40;;;;;;;;;;4914949;29;20135;-71
2024/01/25 13:49:49;;;;;;;34.60;7.07;;;;;;;;;;4910086;29;20893;-71
2024/01/25 13:52:19;;;;;;;30.60;5.88;;;;;;;;;;4890134;29;20128;-72
2024/01/25 13:54:45;;;;;;;34.58;6.13;;;;;;;;;;4905186;29;20051;-71
2024/01/25 13:57:11;;;;;;;39.35;7.07;;;;;;;;;;4906150;29;20032;-72
2024/01/25 13:59:37;;;;;;;38.75;6.32;;;;;;;;;;4901096;29;20046;-72
2024/01/25 14:02:04;;;;;;;39.60;6.38;;;;;;;;;;4906096;29;20058;-71
2024/01/25 14:04:29;;;;;;;30.38;6.38;;;;;;;;;;4908328;29;20527;-73
2024/01/25 14:06:55;;;;;;;40.22;7.63;;;;;;;;;;4907171;29;20071;-72
2024/01/25 14:09:21;;;;;;;31.35;6.13;;;;;;;;;;4918819;29;20714;-72
2024/01/25 14:11:47;;;;;;;39.38;6.55;;;;;;;;;;4915253;29;20115;-73
2024/01/25 14:14:13;;;;;;;23.60;4.82;;;;;;;;;;4913614;29;20051;-70
2024/01/25 14:16:39;;;;;;;36.22;5.80;;;;;;;;;;4904806;29;20044;-70
2024/01/25 14:19:05;;;;;;;34.17;6.35;;;;;;;;;;4916191;29;20039;-72
2024/01/25 14:21:32;;;;;;;34.75;5.75;;;;;;;;;;4913553;29;20043;-71
2024/01/25 14:23:58;;;;;;;30.02;5.50;;;;;;;;;;4922897;29;20731;-72
2024/01/25 14:26:24;;;;;;;34.17;6.07;;;;;;;;;;4918944;29;20043;-72